sensor_id;sensor_type;location;lat;lon;timestamp;temperature;humidity
19966;DHT22;10144;50.874;4.762;2024-03-23T00:53:16;7.40;99.90
19966;DHT22;10144;50.874;4.762;2024-03-23T00:55:42;7.50;99.90
19966;DHT22;10144;50.874;4.762;2024-03-23T00:58:13;7.40;99.90
19966;DHT22;10144;50.874;4.762;2024-03-23T01:03:54;7.40;99.90
19966;DHT22;10144;50.874;4.762;2024-03-23T01:06:19;7.50;99.90
19966;DHT22;10144;50.874;4.762;2024-03-23T01:08:45;7.50;99.90
19966;DHT22;10144;50.874;4.762;2024-03-23T01:11:23;7.60;99.90
19966;DHT22;10144;50.874;4.762;2024-03-23T01:13:55;7.70;99.90
19966;DHT22;10144;50.874;4.762;2024-03-23T01:16:23;7.80;99.90
19966;DHT22;10144;50.874;4.762;2024-03-23T01:21:43;7.20;99.90
19966;DHT22;10144;50.874;4.762;2024-03-23T01:24:12;6.90;99.90
19966;DHT22;10144;50.874;4.762;2024-03-23T01:27:14;6.70;99.90
19966;DHT22;10144;50.874;4.762;2024-03-23T01:29:43;6.80;99.90
19966;DHT22;10144;50.874;4.762;2024-03-23T01:32:33;6.80;99.90
19966;DHT22;10144;50.874;4.762;2024-03-23T01:35:02;6.90;99.90
19966;DHT22;10144;50.874;4.762;2024-03-23T01:37:35;6.80;99.90
19966;DHT22;10144;50.874;4.762;2024-03-23T01:40:01;6.90;99.90
19966;DHT22;10144;50.874;4.762;2024-03-23T01:42:56;7.10;99.90
19966;DHT22;10144;50.874;4.762;2024-03-23T01:45:24;7.20;99.90
19966;DHT22;10144;50.874;4.762;2024-03-23T01:47:53;7.10;99.90
19966;DHT22;10144;50.874;4.762;2024-03-23T01:50:22;7.20;99.90
19966;DHT22;10144;50.874;4.762;2024-03-23T01:53:15;7.40;99.90
19966;DHT22;10144;50.874;4.762;2024-03-23T01:55:48;7.40;99.90
19966;DHT22;10144;50.874;4.762;2024-03-23T01:58:43;7.50;99.90
19966;DHT22;10144;50.874;4.762;2024-03-23T02:01:31;7.60;99.90
19966;DHT22;10144;50.874;4.762;2024-03-23T02:04:02;7.40;99.90
19966;DHT22;10144;50.874;4.762;2024-03-23T02:06:44;7.20;99.90
19966;DHT22;10144;50.874;4.762;2024-03-23T02:12:29;7.00;99.90
19966;DHT22;10144;50.874;4.762;2024-03-23T02:15:00;7.00;99.90
19966;DHT22;10144;50.874;4.762;2024-03-23T02:20:44;6.90;99.90
19966;DHT22;10144;50.874;4.762;2024-03-23T02:23:17;6.80;99.90
19966;DHT22;10144;50.874;4.762;2024-03-23T02:25:54;6.80;99.90
19966;DHT22;10144;50.874;4.762;2024-03-23T02:28:20;6.80;99.90
19966;DHT22;10144;50.874;4.762;2024-03-23T02:31:25;6.80;99.90
19966;DHT22;10144;50.874;4.762;2024-03-23T02:33:55;6.70;99.90
19966;DHT22;10144;50.874;4.762;2024-03-23T02:36:23;6.60;99.90
19966;DHT22;10144;50.874;4.762;2024-03-23T02:39:08;6.70;99.90
19966;DHT22;10144;50.874;4.762;2024-03-23T02:41:34;6.70;99.90
19966;DHT22;10144;50.874;4.762;2024-03-23T02:44:16;6.70;99.90
19966;DHT22;10144;50.874;4.762;2024-03-23T02:49:44;6.50;99.90
19966;DHT22;10144;50.874;4.762;2024-03-23T02:52:30;6.60;99.90
19966;DHT22;10144;50.874;4.762;2024-03-23T02:54:59;6.60;99.90
19966;DHT22;10144;50.874;4.762;2024-03-23T02:57:26;6.70;99.90
19966;DHT22;10144;50.874;4.762;2024-03-23T03:00:17;6.70;99.90
19966;DHT22;10144;50.874;4.762;2024-03-23T03:02:43;6.70;99.90
19966;DHT22;10144;50.874;4.762;2024-03-23T03:05:15;6.70;99.90
19966;DHT22;10144;50.874;4.762;2024-03-23T03:07:56;6.60;99.90
19966;DHT22;10144;50.874;4.762;2024-03-23T03:10:45;6.60;99.90
19966;DHT22;10144;50.874;4.762;2024-03-23T03:13:12;6.50;99.90
19966;DHT22;10144;50.874;4.762;2024-03-23T03:15:39;6.50;99.90
19966;DHT22;10144;50.874;4.762;2024-03-23T03:18:14;6.70;99.90
19966;DHT22;10144;50.874;4.762;2024-03-23T03:20:46;6.80;99.90
19966;DHT22;10144;50.874;4.762;2024-03-23T03:23:12;6.80;99.90
19966;DHT22;10144;50.874;4.762;2024-03-23T03:25:53;6.80;99.90
19966;DHT22;10144;50.874;4.762;2024-03-23T03:28:20;6.90;99.90
19966;DHT22;10144;50.874;4.762;2024-03-23T03:30:55;6.90;99.90
19966;DHT22;10144;50.874;4.762;2024-03-23T03:33:22;7.00;99.90
19966;DHT22;10144;50.874;4.762;2024-03-23T03:36:03;7.00;99.90
19966;DHT22;10144;50.874;4.762;2024-03-23T03:38:33;6.90;99.90
19966;DHT22;10144;50.874;4.762;2024-03-23T03:41:07;6.90;99.90
19966;DHT22;10144;50.874;4.762;2024-03-23T03:43:39;6.90;99.90
19966;DHT22;10144;50.874;4.762;2024-03-23T03:46:30;6.90;99.90
19966;DHT22;10144;50.874;4.762;2024-03-23T03:49:02;6.80;99.90
19966;DHT22;10144;50.874;4.762;2024-03-23T03:51:47;6.70;99.90
19966;DHT22;10144;50.874;4.762;2024-03-23T03:54:22;6.50;99.90
19966;DHT22;10144;50.874;4.762;2024-03-23T03:56:54;6.40;99.90
19966;DHT22;10144;50.874;4.762;2024-03-23T03:59:30;6.30;99.90
19966;DHT22;10144;50.874;4.762;2024-03-23T04:01:56;6.40;99.90
19966;DHT22;10144;50.874;4.762;2024-03-23T04:04:21;6.40;99.90
19966;DHT22;10144;50.874;4.762;2024-03-23T04:07:01;6.40;99.90
19966;DHT22;10144;50.874;4.762;2024-03-23T04:09:27;6.50;99.90
19966;DHT22;10144;50.874;4.762;2024-03-23T04:11:58;6.50;99.90
19966;DHT22;10144;50.874;4.762;2024-03-23T04:14:27;6.40;99.90
19966;DHT22;10144;50.874;4.762;2024-03-23T04:16:53;6.20;99.90
19966;DHT22;10144;50.874;4.762;2024-03-23T04:19:44;6.20;99.90
19966;DHT22;10144;50.874;4.762;2024-03-23T04:22:13;6.20;99.90
19966;DHT22;10144;50.874;4.762;2024-03-23T04:24:54;6.10;99.90
19966;DHT22;10144;50.874;4.762;2024-03-23T04:27:26;6.10;99.90
19966;DHT22;10144;50.874;4.762;2024-03-23T04:33:15;6.00;99.90
19966;DHT22;10144;50.874;4.762;2024-03-23T04:35:49;6.10;99.90
19966;DHT22;10144;50.874;4.762;2024-03-23T04:38:21;6.10;99.90
19966;DHT22;10144;50.874;4.762;2024-03-23T04:41:21;6.10;99.90
19966;DHT22;10144;50.874;4.762;2024-03-23T04:43:49;6.10;99.90
19966;DHT22;10144;50.874;4.762;2024-03-23T04:46:21;6.10;99.90
19966;DHT22;10144;50.874;4.762;2024-03-23T04:48:47;6.10;99.90
19966;DHT22;10144;50.874;4.762;2024-03-23T04:54:39;6.20;99.90
19966;DHT22;10144;50.874;4.762;2024-03-23T04:57:11;6.20;99.90
19966;DHT22;10144;50.874;4.762;2024-03-23T04:59:38;6.20;99.90
19966;DHT22;10144;50.874;4.762;2024-03-23T05:05:12;6.30;99.90
19966;DHT22;10144;50.874;4.762;2024-03-23T05:07:45;6.30;99.90
19966;DHT22;10144;50.874;4.762;2024-03-23T05:10:19;6.30;99.90
19966;DHT22;10144;50.874;4.762;2024-03-23T05:12:51;6.40;99.90
19966;DHT22;10144;50.874;4.762;2024-03-23T05:15:20;6.40;99.90
19966;DHT22;10144;50.874;4.762;2024-03-23T05:17:57;6.40;99.90
19966;DHT22;10144;50.874;4.762;2024-03-23T05:20:23;6.40;99.90
19966;DHT22;10144;50.874;4.762;2024-03-23T05:22:51;6.40;99.90
19966;DHT22;10144;50.874;4.762;2024-03-23T05:25:21;6.30;99.90
19966;DHT22;10144;50.874;4.762;2024-03-23T05:27:48;6.20;99.90
19966;DHT22;10144;50.874;4.762;2024-03-23T05:30:16;6.10;99.90
19966;DHT22;10144;50.874;4.762;2024-03-23T05:32:54;6.10;99.90
19966;DHT22;10144;50.874;4.762;2024-03-23T05:35:29;6.00;99.90
19966;DHT22;10144;50.874;4.762;2024-03-23T05:37:55;5.90;99.90
19966;DHT22;10144;50.874;4.762;2024-03-23T05:40:31;5.90;99.90
19966;DHT22;10144;50.874;4.762;2024-03-23T05:43:00;5.80;99.90
19966;DHT22;10144;50.874;4.762;2024-03-23T05:45:29;5.90;99.90
19966;DHT22;10144;50.874;4.762;2024-03-23T05:47:58;5.90;99.90
19966;DHT22;10144;50.874;4.762;2024-03-23T05:50:36;5.80;99.90
19966;DHT22;10144;50.874;4.762;2024-03-23T05:53:08;5.90;99.90
19966;DHT22;10144;50.874;4.762;2024-03-23T05:55:36;5.70;99.90
19966;DHT22;10144;50.874;4.762;2024-03-23T05:58:16;5.70;99.90
19966;DHT22;10144;50.874;4.762;2024-03-23T06:04:30;5.70;99.90
19966;DHT22;10144;50.874;4.762;2024-03-23T06:06:55;5.70;99.90
19966;DHT22;10144;50.874;4.762;2024-03-23T06:09:26;5.70;99.90
19966;DHT22;10144;50.874;4.762;2024-03-23T06:11:54;5.80;99.90
19966;DHT22;10144;50.874;4.762;2024-03-23T06:14:23;6.00;99.90
19966;DHT22;10144;50.874;4.762;2024-03-23T06:16:49;6.20;99.90
19966;DHT22;10144;50.874;4.762;2024-03-23T06:19:16;6.50;99.90
19966;DHT22;10144;50.874;4.762;2024-03-23T06:22:06;7.30;99.90
19966;DHT22;10144;50.874;4.762;2024-03-23T06:24:35;7.90;99.90
19966;DHT22;10144;50.874;4.762;2024-03-23T06:27:03;8.40;99.90
19966;DHT22;10144;50.874;4.762;2024-03-23T06:29:30;8.20;99.90
19966;DHT22;10144;50.874;4.762;2024-03-23T06:31:55;8.10;99.90
19966;DHT22;10144;50.874;4.762;2024-03-23T06:34:24;8.00;99.90
19966;DHT22;10144;50.874;4.762;2024-03-23T06:37:04;7.90;99.90
19966;DHT22;10144;50.874;4.762;2024-03-23T06:39:36;7.80;99.90
19966;DHT22;10144;50.874;4.762;2024-03-23T06:45:16;7.40;99.90
19966;DHT22;10144;50.874;4.762;2024-03-23T06:48:11;7.40;99.90
19966;DHT22;10144;50.874;4.762;2024-03-23T06:50:40;7.40;99.90
19966;DHT22;10144;50.874;4.762;2024-03-23T06:53:09;7.40;99.90
19966;DHT22;10144;50.874;4.762;2024-03-23T06:56:00;7.40;99.90
19966;DHT22;10144;50.874;4.762;2024-03-23T06:58:56;7.60;99.90
19966;DHT22;10144;50.874;4.762;2024-03-23T07:01:24;7.80;99.90
19966;DHT22;10144;50.874;4.762;2024-03-23T07:03:52;8.00;99.90
19966;DHT22;10144;50.874;4.762;2024-03-23T07:06:21;8.10;99.90
19966;DHT22;10144;50.874;4.762;2024-03-23T07:08:47;8.20;99.90
19966;DHT22;10144;50.874;4.762;2024-03-23T07:11:34;8.30;99.90
19966;DHT22;10144;50.874;4.762;2024-03-23T07:14:03;8.40;99.90
19966;DHT22;10144;50.874;4.762;2024-03-23T07:16:32;8.30;99.90
19966;DHT22;10144;50.874;4.762;2024-03-23T07:22:32;8.50;99.90
19966;DHT22;10144;50.874;4.762;2024-03-23T07:25:10;8.90;99.90
19966;DHT22;10144;50.874;4.762;2024-03-23T07:27:37;9.20;99.90
19966;DHT22;10144;50.874;4.762;2024-03-23T07:30:12;11.20;99.90
19966;DHT22;10144;50.874;4.762;2024-03-23T07:32:38;14.00;99.90
19966;DHT22;10144;50.874;4.762;2024-03-23T07:35:32;14.40;99.90
19966;DHT22;10144;50.874;4.762;2024-03-23T07:37:58;12.90;99.90
19966;DHT22;10144;50.874;4.762;2024-03-23T07:43:48;10.40;99.90
19966;DHT22;10144;50.874;4.762;2024-03-23T07:46:16;9.90;99.90
19966;DHT22;10144;50.874;4.762;2024-03-23T07:48:58;9.60;99.90
19966;DHT22;10144;50.874;4.762;2024-03-23T07:51:27;9.40;99.90
19966;DHT22;10144;50.874;4.762;2024-03-23T07:54:08;8.90;99.90
19966;DHT22;10144;50.874;4.762;2024-03-23T07:56:36;8.90;99.90
19966;DHT22;10144;50.874;4.762;2024-03-23T07:59:24;9.20;99.90
19966;DHT22;10144;50.874;4.762;2024-03-23T08:01:55;9.60;99.90
19966;DHT22;10144;50.874;4.762;2024-03-23T08:04:21;10.10;99.90
19966;DHT22;10144;50.874;4.762;2024-03-23T08:06:47;10.70;99.90
19966;DHT22;10144;50.874;4.762;2024-03-23T08:09:13;12.20;99.90
19966;DHT22;10144;50.874;4.762;2024-03-23T08:11:57;12.80;99.90
19966;DHT22;10144;50.874;4.762;2024-03-23T08:14:35;14.20;99.90
19966;DHT22;10144;50.874;4.762;2024-03-23T08:17:03;16.30;99.90
19966;DHT22;10144;50.874;4.762;2024-03-23T08:22:42;19.10;99.90
19966;DHT22;10144;50.874;4.762;2024-03-23T08:25:14;19.50;99.90
19966;DHT22;10144;50.874;4.762;2024-03-23T08:28:11;19.90;99.90
19966;DHT22;10144;50.874;4.762;2024-03-23T08:30:37;19.90;99.90
19966;DHT22;10144;50.874;4.762;2024-03-23T08:33:02;19.20;99.90
19966;DHT22;10144;50.874;4.762;2024-03-23T08:35:38;18.70;99.90
19966;DHT22;10144;50.874;4.762;2024-03-23T08:38:16;18.90;99.90
19966;DHT22;10144;50.874;4.762;2024-03-23T08:40:45;17.20;99.90
19966;DHT22;10144;50.874;4.762;2024-03-23T08:43:17;15.40;99.90
19966;DHT22;10144;50.874;4.762;2024-03-23T08:46:11;14.50;99.90
19966;DHT22;10144;50.874;4.762;2024-03-23T08:48:41;13.80;99.90
19966;DHT22;10144;50.874;4.762;2024-03-23T08:51:21;13.60;99.90
19966;DHT22;10144;50.874;4.762;2024-03-23T08:53:53;14.10;99.90
19966;DHT22;10144;50.874;4.762;2024-03-23T08:56:19;14.10;99.90
19966;DHT22;10144;50.874;4.762;2024-03-23T08:58:54;14.20;99.90
19966;DHT22;10144;50.874;4.762;2024-03-23T09:04:42;17.10;99.90
19966;DHT22;10144;50.874;4.762;2024-03-23T09:07:36;16.80;99.90
19966;DHT22;10144;50.874;4.762;2024-03-23T09:10:01;14.70;99.90
19966;DHT22;10144;50.874;4.762;2024-03-23T09:12:27;13.60;99.90
19966;DHT22;10144;50.874;4.762;2024-03-23T09:15:15;13.30;99.90
19966;DHT22;10144;50.874;4.762;2024-03-23T09:17:56;12.70;99.90
19966;DHT22;10144;50.874;4.762;2024-03-23T09:20:24;13.40;99.90
19966;DHT22;10144;50.874;4.762;2024-03-23T09:22:56;13.90;99.90
19966;DHT22;10144;50.874;4.762;2024-03-23T09:25:28;14.10;99.90
19966;DHT22;10144;50.874;4.762;2024-03-23T09:28:18;14.00;99.90
19966;DHT22;10144;50.874;4.762;2024-03-23T09:31:08;15.70;99.90
19966;DHT22;10144;50.874;4.762;2024-03-23T09:33:36;16.10;99.90
19966;DHT22;10144;50.874;4.762;2024-03-23T09:36:23;18.80;99.90
19966;DHT22;10144;50.874;4.762;2024-03-23T09:38:49;19.80;99.90
19966;DHT22;10144;50.874;4.762;2024-03-23T09:41:49;19.20;99.90
19966;DHT22;10144;50.874;4.762;2024-03-23T09:44:16;17.20;99.90
19966;DHT22;10144;50.874;4.762;2024-03-23T09:46:49;16.40;99.90
19966;DHT22;10144;50.874;4.762;2024-03-23T09:49:28;15.30;99.90
19966;DHT22;10144;50.874;4.762;2024-03-23T09:51:54;14.10;99.90
19966;DHT22;10144;50.874;4.762;2024-03-23T09:54:26;12.80;99.90
19966;DHT22;10144;50.874;4.762;2024-03-23T09:56:58;12.50;99.90
19966;DHT22;10144;50.874;4.762;2024-03-23T09:59:27;12.00;99.90
19966;DHT22;10144;50.874;4.762;2024-03-23T10:01:55;11.70;99.90
19966;DHT22;10144;50.874;4.762;2024-03-23T10:07:44;13.60;99.90
19966;DHT22;10144;50.874;4.762;2024-03-23T10:11:16;15.50;99.90
19966;DHT22;10144;50.874;4.762;2024-03-23T10:13:27;16.00;99.90
19966;DHT22;10144;50.874;4.762;2024-03-23T10:15:58;18.50;99.90
19966;DHT22;10144;50.874;4.762;2024-03-23T10:18:46;18.70;99.90
19966;DHT22;10144;50.874;4.762;2024-03-23T10:21:16;18.70;99.90
19966;DHT22;10144;50.874;4.762;2024-03-23T10:23:57;19.30;99.90
19966;DHT22;10144;50.874;4.762;2024-03-23T10:26:39;20.30;99.90
19966;DHT22;10144;50.874;4.762;2024-03-23T10:29:08;19.40;99.90
19966;DHT22;10144;50.874;4.762;2024-03-23T10:31:53;18.30;99.90
19966;DHT22;10144;50.874;4.762;2024-03-23T10:34:26;15.80;99.90
19966;DHT22;10144;50.874;4.762;2024-03-23T10:36:56;13.90;99.90
19966;DHT22;10144;50.874;4.762;2024-03-23T10:42:45;12.30;99.90
19966;DHT22;10144;50.874;4.762;2024-03-23T10:45:12;12.00;99.90
19966;DHT22;10144;50.874;4.762;2024-03-23T10:47:38;13.80;99.90
19966;DHT22;10144;50.874;4.762;2024-03-23T10:53:38;15.70;99.90
19966;DHT22;10144;50.874;4.762;2024-03-23T10:56:31;18.70;99.90
19966;DHT22;10144;50.874;4.762;2024-03-23T10:59:01;17.70;99.90
19966;DHT22;10144;50.874;4.762;2024-03-23T11:01:56;16.70;99.90
19966;DHT22;10144;50.874;4.762;2024-03-23T11:04:36;14.30;99.90
19966;DHT22;10144;50.874;4.762;2024-03-23T11:07:40;12.90;99.90
19966;DHT22;10144;50.874;4.762;2024-03-23T11:10:30;13.10;99.90
19966;DHT22;10144;50.874;4.762;2024-03-23T11:12:57;14.60;99.90
19966;DHT22;10144;50.874;4.762;2024-03-23T11:15:26;15.40;99.90
19966;DHT22;10144;50.874;4.762;2024-03-23T11:21:11;16.90;99.90
19966;DHT22;10144;50.874;4.762;2024-03-23T11:27:22;16.20;99.90
19966;DHT22;10144;50.874;4.762;2024-03-23T11:29:47;15.40;99.90
19966;DHT22;10144;50.874;4.762;2024-03-23T11:32:15;15.10;99.90
19966;DHT22;10144;50.874;4.762;2024-03-23T11:34:43;17.30;99.90
19966;DHT22;10144;50.874;4.762;2024-03-23T11:37:10;18.50;99.90
19966;DHT22;10144;50.874;4.762;2024-03-23T11:39:44;19.00;99.90
19966;DHT22;10144;50.874;4.762;2024-03-23T11:48:56;20.40;99.90
19966;DHT22;10144;50.874;4.762;2024-03-23T11:51:25;20.50;99.90
19966;DHT22;10144;50.874;4.762;2024-03-23T11:54:06;20.00;99.90
19966;DHT22;10144;50.874;4.762;2024-03-23T11:57:09;20.50;99.90
19966;DHT22;10144;50.874;4.762;2024-03-23T11:59:40;18.50;99.90
19966;DHT22;10144;50.874;4.762;2024-03-23T12:02:12;17.60;1.00
19966;DHT22;10144;50.874;4.762;2024-03-23T12:07:36;16.70;99.90
19966;DHT22;10144;50.874;4.762;2024-03-23T12:10:05;18.40;1.00
19966;DHT22;10144;50.874;4.762;2024-03-23T12:12:33;18.60;99.90
19966;DHT22;10144;50.874;4.762;2024-03-23T12:18:29;16.50;1.00
19966;DHT22;10144;50.874;4.762;2024-03-23T12:21:31;15.10;99.90
19966;DHT22;10144;50.874;4.762;2024-03-23T12:24:00;16.30;1.00
19966;DHT22;10144;50.874;4.762;2024-03-23T12:26:36;16.80;8.40
19966;DHT22;10144;50.874;4.762;2024-03-23T12:29:41;16.70;1.00
19966;DHT22;10144;50.874;4.762;2024-03-23T12:32:15;17.10;1.00
19966;DHT22;10144;50.874;4.762;2024-03-23T12:34:42;16.90;99.90
19966;DHT22;10144;50.874;4.762;2024-03-23T12:37:14;16.20;1.00
19966;DHT22;10144;50.874;4.762;2024-03-23T12:40:02;16.80;99.90
19966;DHT22;10144;50.874;4.762;2024-03-23T12:42:35;16.80;1.00
19966;DHT22;10144;50.874;4.762;2024-03-23T12:45:04;16.90;1.00
19966;DHT22;10144;50.874;4.762;2024-03-23T12:47:33;18.10;1.00
19966;DHT22;10144;50.874;4.762;2024-03-23T12:50:00;16.70;1.00
19966;DHT22;10144;50.874;4.762;2024-03-23T12:52:31;15.50;1.00
19966;DHT22;10144;50.874;4.762;2024-03-23T12:55:12;13.80;99.90
19966;DHT22;10144;50.874;4.762;2024-03-23T12:57:40;12.20;1.00
19966;DHT22;10144;50.874;4.762;2024-03-23T13:00:09;12.00;1.00
19966;DHT22;10144;50.874;4.762;2024-03-23T13:02:42;13.40;1.00
19966;DHT22;10144;50.874;4.762;2024-03-23T13:05:37;15.20;99.90
19966;DHT22;10144;50.874;4.762;2024-03-23T13:14:15;17.70;99.90
19966;DHT22;10144;50.874;4.762;2024-03-23T13:16:59;17.50;1.00
19966;DHT22;10144;50.874;4.762;2024-03-23T13:19:28;17.40;99.90
19966;DHT22;10144;50.874;4.762;2024-03-23T13:22:08;17.40;1.00
19966;DHT22;10144;50.874;4.762;2024-03-23T13:24:37;17.00;1.00
19966;DHT22;10144;50.874;4.762;2024-03-23T13:27:15;16.70;93.00
19966;DHT22;10144;50.874;4.762;2024-03-23T13:29:44;14.50;1.00
19966;DHT22;10144;50.874;4.762;2024-03-23T13:32:17;14.30;1.00
19966;DHT22;10144;50.874;4.762;2024-03-23T13:34:43;14.60;1.00
19966;DHT22;10144;50.874;4.762;2024-03-23T13:37:35;14.50;99.90
19966;DHT22;10144;50.874;4.762;2024-03-23T13:40:05;14.20;1.00
19966;DHT22;10144;50.874;4.762;2024-03-23T13:42:36;14.10;1.00
19966;DHT22;10144;50.874;4.762;2024-03-23T13:45:16;13.60;1.00
19966;DHT22;10144;50.874;4.762;2024-03-23T13:47:43;13.10;99.90
19966;DHT22;10144;50.874;4.762;2024-03-23T13:50:30;11.90;1.00
19966;DHT22;10144;50.874;4.762;2024-03-23T13:52:56;11.30;1.00
19966;DHT22;10144;50.874;4.762;2024-03-23T13:55:24;10.70;1.00
19966;DHT22;10144;50.874;4.762;2024-03-23T14:00:44;10.40;1.00
19966;DHT22;10144;50.874;4.762;2024-03-23T14:03:13;10.70;1.00
19966;DHT22;10144;50.874;4.762;2024-03-23T14:05:42;10.90;1.00
19966;DHT22;10144;50.874;4.762;2024-03-23T14:08:42;11.10;1.00
19966;DHT22;10144;50.874;4.762;2024-03-23T14:11:11;11.00;1.00
19966;DHT22;10144;50.874;4.762;2024-03-23T14:13:43;10.60;1.00
19966;DHT22;10144;50.874;4.762;2024-03-23T14:16:27;10.00;1.00
19966;DHT22;10144;50.874;4.762;2024-03-23T14:18:56;9.40;20.00
19966;DHT22;10144;50.874;4.762;2024-03-23T14:21:50;9.10;91.00
19966;DHT22;10144;50.874;4.762;2024-03-23T14:27:40;9.10;99.90
19966;DHT22;10144;50.874;4.762;2024-03-23T14:30:10;9.20;96.50
19966;DHT22;10144;50.874;4.762;2024-03-23T14:32:58;9.50;99.90
19966;DHT22;10144;50.874;4.762;2024-03-23T14:35:24;9.50;99.90
19966;DHT22;10144;50.874;4.762;2024-03-23T14:38:17;9.30;99.90
19966;DHT22;10144;50.874;4.762;2024-03-23T14:41:08;9.00;99.90
19966;DHT22;10144;50.874;4.762;2024-03-23T14:43:33;8.90;99.90
19966;DHT22;10144;50.874;4.762;2024-03-23T14:46:13;8.70;99.90
19966;DHT22;10144;50.874;4.762;2024-03-23T14:48:42;8.80;99.90
19966;DHT22;10144;50.874;4.762;2024-03-23T14:51:42;9.20;99.90
19966;DHT22;10144;50.874;4.762;2024-03-23T14:54:08;9.70;99.90
19966;DHT22;10144;50.874;4.762;2024-03-23T14:56:43;10.00;99.90
19966;DHT22;10144;50.874;4.762;2024-03-23T14:59:08;10.40;99.90
19966;DHT22;10144;50.874;4.762;2024-03-23T15:01:34;10.40;99.90
19966;DHT22;10144;50.874;4.762;2024-03-23T15:04:01;10.30;99.90
19966;DHT22;10144;50.874;4.762;2024-03-23T15:06:46;10.30;99.90
19966;DHT22;10144;50.874;4.762;2024-03-23T15:09:15;10.20;99.90
19966;DHT22;10144;50.874;4.762;2024-03-23T15:11:40;10.30;99.90
19966;DHT22;10144;50.874;4.762;2024-03-23T15:14:13;10.30;99.90
19966;DHT22;10144;50.874;4.762;2024-03-23T15:16:41;10.40;97.50
19966;DHT22;10144;50.874;4.762;2024-03-23T15:19:15;10.20;99.90
19966;DHT22;10144;50.874;4.762;2024-03-23T15:21:45;10.20;99.90
19966;DHT22;10144;50.874;4.762;2024-03-23T15:24:21;10.30;99.90
19966;DHT22;10144;50.874;4.762;2024-03-23T15:26:52;10.50;99.90
19966;DHT22;10144;50.874;4.762;2024-03-23T15:29:23;10.40;99.90
19966;DHT22;10144;50.874;4.762;2024-03-23T15:32:04;10.10;99.90
19966;DHT22;10144;50.874;4.762;2024-03-23T15:34:33;10.20;99.90
19966;DHT22;10144;50.874;4.762;2024-03-23T15:37:02;10.40;99.90
19966;DHT22;10144;50.874;4.762;2024-03-23T15:39:28;10.40;99.90
19966;DHT22;10144;50.874;4.762;2024-03-23T15:42:06;10.10;99.90
19966;DHT22;10144;50.874;4.762;2024-03-23T15:44:35;10.10;99.90
19966;DHT22;10144;50.874;4.762;2024-03-23T15:50:21;10.20;93.00
19966;DHT22;10144;50.874;4.762;2024-03-23T15:53:05;10.20;82.10
19966;DHT22;10144;50.874;4.762;2024-03-23T15:55:38;10.00;99.90
19966;DHT22;10144;50.874;4.762;2024-03-23T15:58:22;9.70;99.90
19966;DHT22;10144;50.874;4.762;2024-03-23T16:03:32;9.80;99.90
19966;DHT22;10144;50.874;4.762;2024-03-23T16:06:06;9.90;99.90
19966;DHT22;10144;50.874;4.762;2024-03-23T16:08:41;9.90;99.70
19966;DHT22;10144;50.874;4.762;2024-03-23T16:11:25;9.70;97.20
19966;DHT22;10144;50.874;4.762;2024-03-23T16:13:51;9.50;99.90
19966;DHT22;10144;50.874;4.762;2024-03-23T16:19:21;9.40;99.90
19966;DHT22;10144;50.874;4.762;2024-03-23T16:22:03;9.20;99.90
19966;DHT22;10144;50.874;4.762;2024-03-23T16:27:35;9.00;99.90
19966;DHT22;10144;50.874;4.762;2024-03-23T16:30:23;8.70;99.90
19966;DHT22;10144;50.874;4.762;2024-03-23T16:36:15;8.50;99.90
19966;DHT22;10144;50.874;4.762;2024-03-23T16:39:04;8.50;99.90
19966;DHT22;10144;50.874;4.762;2024-03-23T16:41:33;8.60;99.90
19966;DHT22;10144;50.874;4.762;2024-03-23T16:44:06;8.70;99.90
19966;DHT22;10144;50.874;4.762;2024-03-23T16:46:34;8.70;99.90
19966;DHT22;10144;50.874;4.762;2024-03-23T16:49:16;8.80;99.90
19966;DHT22;10144;50.874;4.762;2024-03-23T16:51:48;8.90;99.90
19966;DHT22;10144;50.874;4.762;2024-03-23T16:54:15;9.10;99.90
19966;DHT22;10144;50.874;4.762;2024-03-23T16:57:06;9.00;99.90
19966;DHT22;10144;50.874;4.762;2024-03-23T17:03:24;9.00;99.90
19966;DHT22;10144;50.874;4.762;2024-03-23T17:05:50;9.00;99.90
19966;DHT22;10144;50.874;4.762;2024-03-23T17:08:42;9.20;99.90
19966;DHT22;10144;50.874;4.762;2024-03-23T17:11:18;9.20;99.90
19966;DHT22;10144;50.874;4.762;2024-03-23T17:13:52;9.20;99.90
19966;DHT22;10144;50.874;4.762;2024-03-23T17:16:32;9.10;99.90
19966;DHT22;10144;50.874;4.762;2024-03-23T17:19:00;9.20;99.90
19966;DHT22;10144;50.874;4.762;2024-03-23T17:21:26;9.20;99.90
19966;DHT22;10144;50.874;4.762;2024-03-23T17:23:56;9.20;99.90
19966;DHT22;10144;50.874;4.762;2024-03-23T17:29:45;9.00;99.90
19966;DHT22;10144;50.874;4.762;2024-03-23T17:32:18;8.70;99.90
19966;DHT22;10144;50.874;4.762;2024-03-23T17:35:00;8.70;99.90
19966;DHT22;10144;50.874;4.762;2024-03-23T17:37:28;8.60;99.90
19966;DHT22;10144;50.874;4.762;2024-03-23T17:39:53;8.70;99.90
19966;DHT22;10144;50.874;4.762;2024-03-23T17:42:39;8.80;99.90
19966;DHT22;10144;50.874;4.762;2024-03-23T17:45:08;8.90;99.90
19966;DHT22;10144;50.874;4.762;2024-03-23T17:48:08;8.90;99.90
19966;DHT22;10144;50.874;4.762;2024-03-23T17:50:34;8.50;99.90
19966;DHT22;10144;50.874;4.762;2024-03-23T17:53:06;8.20;99.90
19966;DHT22;10144;50.874;4.762;2024-03-23T17:55:35;8.20;99.90
19966;DHT22;10144;50.874;4.762;2024-03-23T17:58:02;8.20;99.90
19966;DHT22;10144;50.874;4.762;2024-03-23T18:00:37;8.30;99.90
19966;DHT22;10144;50.874;4.762;2024-03-23T18:03:36;8.20;99.90
19966;DHT22;10144;50.874;4.762;2024-03-23T18:06:09;8.20;99.90
19966;DHT22;10144;50.874;4.762;2024-03-23T18:09:02;7.80;99.90
19966;DHT22;10144;50.874;4.762;2024-03-23T18:11:36;7.60;99.90
19966;DHT22;10144;50.874;4.762;2024-03-23T18:14:02;7.20;99.90
19966;DHT22;10144;50.874;4.762;2024-03-23T18:19:41;6.80;99.90
19966;DHT22;10144;50.874;4.762;2024-03-23T18:22:42;6.60;99.90
19966;DHT22;10144;50.874;4.762;2024-03-23T18:25:22;6.10;99.90
19966;DHT22;10144;50.874;4.762;2024-03-23T18:28:02;5.80;99.90
19966;DHT22;10144;50.874;4.762;2024-03-23T18:30:31;5.50;99.90
19966;DHT22;10144;50.874;4.762;2024-03-23T18:32:57;5.40;99.90
19966;DHT22;10144;50.874;4.762;2024-03-23T18:35:26;5.30;99.90
19966;DHT22;10144;50.874;4.762;2024-03-23T18:38:07;5.20;99.90
19966;DHT22;10144;50.874;4.762;2024-03-23T18:40:36;5.20;99.90
19966;DHT22;10144;50.874;4.762;2024-03-23T18:43:06;5.20;99.90
19966;DHT22;10144;50.874;4.762;2024-03-23T18:48:56;5.30;99.90
19966;DHT22;10144;50.874;4.762;2024-03-23T18:51:26;5.40;99.90
19966;DHT22;10144;50.874;4.762;2024-03-23T18:53:55;5.40;99.90
19966;DHT22;10144;50.874;4.762;2024-03-23T18:56:35;5.50;99.90
19966;DHT22;10144;50.874;4.762;2024-03-23T18:59:10;5.60;99.90
19966;DHT22;10144;50.874;4.762;2024-03-23T19:05:15;5.90;99.90
19966;DHT22;10144;50.874;4.762;2024-03-23T19:07:41;6.00;99.90
19966;DHT22;10144;50.874;4.762;2024-03-23T19:13:42;6.10;99.90
19966;DHT22;10144;50.874;4.762;2024-03-23T19:16:07;6.20;99.90
19966;DHT22;10144;50.874;4.762;2024-03-23T19:18:45;6.30;99.90
19966;DHT22;10144;50.874;4.762;2024-03-23T19:21:15;6.30;99.90
19966;DHT22;10144;50.874;4.762;2024-03-23T19:23:42;6.10;99.90